createdAt,value
2018-07-21T00:00:48.290Z,21.57
2018-07-21T00:01:47.852Z,21.48
2018-07-21T00:02:48.728Z,21.50
2018-07-21T00:03:50.667Z,21.33
2018-07-21T00:04:48.347Z,21.39
2018-07-21T00:05:48.339Z,21.32
2018-07-21T00:06:49.312Z,21.18
2018-07-21T00:07:48.687Z,21.17
2018-07-21T00:08:48.376Z,21.12
2018-07-21T00:09:48.304Z,21.05
2018-07-21T00:10:48.842Z,20.97
2018-07-21T00:11:48.326Z,21.07
2018-07-21T00:12:48.827Z,20.97
2018-07-21T00:13:49.378Z,20.97
2018-07-21T00:14:49.309Z,20.87
2018-07-21T00:15:48.854Z,20.84
2018-07-21T00:16:47.553Z,20.75
2018-07-21T00:17:48.867Z,20.75
2018-07-21T00:18:48.724Z,20.78
2018-07-21T00:19:48.301Z,20.77
2018-07-21T00:20:48.782Z,20.75
2018-07-21T00:21:48.272Z,20.69
2018-07-21T00:22:47.472Z,20.72
2018-07-21T00:23:48.845Z,20.69
2018-07-21T00:24:48.793Z,20.69
2018-07-21T00:25:48.301Z,20.62
2018-07-21T00:26:48.237Z,20.59
2018-07-21T00:27:47.490Z,20.48
2018-07-21T00:28:47.105Z,20.65
2018-07-21T00:29:47.105Z,20.52
2018-07-21T00:30:47.107Z,20.51
2018-07-21T00:31:47.118Z,20.59
2018-07-21T00:32:47.113Z,20.50
2018-07-21T00:33:47.115Z,20.65
2018-07-21T00:34:47.120Z,20.62
2018-07-21T00:35:47.122Z,20.58
2018-07-21T00:36:47.125Z,20.63
2018-07-21T00:37:47.127Z,20.60
2018-07-21T00:38:47.129Z,20.65
2018-07-21T00:39:47.132Z,20.78
2018-07-21T00:40:47.136Z,20.72
2018-07-21T00:41:47.139Z,20.77
2018-07-21T00:42:47.140Z,20.80
2018-07-21T00:43:47.144Z,20.81
2018-07-21T00:44:47.149Z,20.75
2018-07-21T00:45:47.152Z,20.74
2018-07-21T00:46:47.159Z,20.74
2018-07-21T00:47:47.156Z,20.75
2018-07-21T00:48:47.158Z,20.74
2018-07-21T00:49:47.160Z,20.69
2018-07-21T00:50:47.550Z,20.72
2018-07-21T00:51:47.167Z,20.74
2018-07-21T00:52:47.169Z,20.72
2018-07-21T00:53:47.175Z,20.65
2018-07-21T00:54:47.188Z,20.65
2018-07-21T00:55:47.178Z,20.66
2018-07-21T00:56:47.182Z,20.62
2018-07-21T00:57:47.186Z,20.59
2018-07-21T00:58:47.187Z,20.52
2018-07-21T00:59:47.192Z,20.51
2018-07-21T01:00:47.196Z,20.50
2018-07-21T01:01:47.199Z,20.50
2018-07-21T01:02:47.197Z,20.43
2018-07-21T01:03:47.200Z,20.43
2018-07-21T01:04:47.204Z,20.51
2018-07-21T01:05:47.206Z,20.47
2018-07-21T01:06:47.218Z,20.44
2018-07-21T01:07:47.211Z,20.43
2018-07-21T01:08:47.214Z,20.41
2018-07-21T01:09:47.235Z,20.50
2018-07-21T01:10:47.220Z,20.43
2018-07-21T01:11:47.232Z,20.36
2018-07-21T01:12:47.227Z,20.32
2018-07-21T01:13:47.228Z,20.31
2018-07-21T01:14:47.235Z,20.41
2018-07-21T01:15:47.233Z,20.39
2018-07-21T01:16:47.237Z,20.32
2018-07-21T01:17:47.241Z,20.36
2018-07-21T01:18:47.241Z,20.40
2018-07-21T01:19:47.245Z,20.37
2018-07-21T01:20:47.250Z,20.37
2018-07-21T01:21:48.043Z,20.39
2018-07-21T01:22:47.252Z,20.37
2018-07-21T01:23:47.255Z,20.29
2018-07-21T01:24:47.259Z,20.36
2018-07-21T01:25:47.282Z,20.32
2018-07-21T01:26:47.263Z,20.22
2018-07-21T01:27:47.266Z,20.22
2018-07-21T01:28:47.270Z,20.18
2018-07-21T01:29:47.276Z,20.22
2018-07-21T01:30:47.277Z,20.22
2018-07-21T01:31:47.277Z,20.22
2018-07-21T01:32:47.281Z,20.21
2018-07-21T01:33:47.284Z,20.22
2018-07-21T01:34:47.284Z,20.18
2018-07-21T01:35:47.289Z,20.24
2018-07-21T01:36:47.294Z,20.14
2018-07-21T01:37:47.296Z,20.18
2018-07-21T01:38:47.295Z,20.10
2018-07-21T01:39:47.298Z,20.14
2018-07-21T01:40:47.301Z,20.07
2018-07-21T01:41:47.305Z,20.04
2018-07-21T01:42:47.306Z,20.07
2018-07-21T01:43:47.307Z,20.11
2018-07-21T01:44:47.312Z,20.06
2018-07-21T01:45:47.316Z,20.04
2018-07-21T01:46:47.315Z,20.06
2018-07-21T01:47:47.320Z,20.11
2018-07-21T01:48:47.324Z,20.09
2018-07-21T01:49:47.329Z,20.09
2018-07-21T01:50:47.350Z,20.09
2018-07-21T01:51:47.330Z,20.16
2018-07-21T01:52:47.331Z,20.19
2018-07-21T01:53:47.339Z,20.11
2018-07-21T01:54:47.335Z,20.13
2018-07-21T01:55:47.338Z,20.07
2018-07-21T01:56:47.343Z,20.11
2018-07-21T01:57:47.351Z,20.09
2018-07-21T01:58:47.345Z,20.10
2018-07-21T01:59:47.358Z,20.24
2018-07-21T02:00:47.351Z,20.13
2018-07-21T02:01:47.357Z,20.16
2018-07-21T02:02:47.357Z,20.18
2018-07-21T02:03:47.360Z,20.18
2018-07-21T02:04:47.365Z,20.18
2018-07-21T02:05:47.364Z,20.24
2018-07-21T02:06:47.366Z,20.19
2018-07-21T02:07:47.368Z,20.22
2018-07-21T02:08:47.372Z,20.18
2018-07-21T02:09:47.374Z,20.25
2018-07-21T02:10:47.375Z,20.21
2018-07-21T02:11:47.381Z,20.19
2018-07-21T02:12:47.421Z,20.21
2018-07-21T02:13:47.385Z,20.24
2018-07-21T02:14:47.386Z,20.24
2018-07-21T02:15:47.390Z,20.24
2018-07-21T02:16:47.394Z,20.24
2018-07-21T02:17:47.397Z,20.25
2018-07-21T02:18:47.397Z,20.32
2018-07-21T02:19:47.403Z,20.37
2018-07-21T02:20:47.404Z,20.34
2018-07-21T02:21:47.406Z,20.21
2018-07-21T02:22:47.410Z,20.24
2018-07-21T02:23:47.453Z,20.19
2018-07-21T02:24:47.443Z,20.21
2018-07-21T02:25:47.417Z,20.31
2018-07-21T02:26:47.423Z,20.31
2018-07-21T02:27:47.422Z,20.32
2018-07-21T02:28:47.426Z,20.37
2018-07-21T02:29:47.434Z,20.36
2018-07-21T02:30:47.430Z,20.32
2018-07-21T02:31:47.432Z,20.44
2018-07-21T02:32:47.437Z,20.39
2018-07-21T02:33:47.438Z,20.47
2018-07-21T02:34:47.445Z,20.50
2018-07-21T02:35:47.443Z,20.43
2018-07-21T02:36:47.448Z,20.44
2018-07-21T02:37:47.450Z,20.50
2018-07-21T02:38:47.452Z,20.44
2018-07-21T02:39:47.453Z,20.47
2018-07-21T02:40:47.457Z,20.40
2018-07-21T02:41:47.466Z,20.47
2018-07-21T02:42:47.461Z,20.48
2018-07-21T02:43:47.465Z,20.51
2018-07-21T02:44:47.476Z,20.50
2018-07-21T02:45:47.576Z,20.58
2018-07-21T02:46:47.476Z,20.51
2018-07-21T02:47:47.475Z,20.51
2018-07-21T02:48:47.479Z,20.65
2018-07-21T02:49:47.481Z,20.56
2018-07-21T02:50:47.491Z,20.56
2018-07-21T02:51:47.486Z,20.52
2018-07-21T02:52:47.494Z,20.50
2018-07-21T02:53:47.493Z,20.58
2018-07-21T02:54:47.497Z,20.52
2018-07-21T02:55:47.497Z,20.47
2018-07-21T02:56:47.508Z,20.47
2018-07-21T02:57:47.503Z,20.48
2018-07-21T02:58:47.506Z,20.56
2018-07-21T02:59:47.509Z,20.48
2018-07-21T03:00:47.511Z,20.55
2018-07-21T03:01:47.515Z,20.47
2018-07-21T03:02:47.520Z,20.50
2018-07-21T03:03:47.519Z,20.43
2018-07-21T03:04:47.523Z,20.43
2018-07-21T03:05:47.526Z,20.52
2018-07-21T03:06:47.527Z,20.47
2018-07-21T03:07:47.533Z,20.44
2018-07-21T03:08:47.538Z,20.50
2018-07-21T03:09:47.536Z,20.60
2018-07-21T03:10:47.540Z,20.48
2018-07-21T03:11:47.542Z,20.51
2018-07-21T03:12:47.545Z,20.44
2018-07-21T03:13:47.547Z,20.43
2018-07-21T03:14:47.551Z,20.39
2018-07-21T03:15:47.553Z,20.40
2018-07-21T03:16:47.556Z,20.43
2018-07-21T03:17:47.558Z,20.50
2018-07-21T03:18:47.562Z,20.47
2018-07-21T03:19:47.562Z,20.41
2018-07-21T03:20:47.570Z,20.50
2018-07-21T03:21:47.572Z,20.51
2018-07-21T03:22:47.573Z,20.47
2018-07-21T03:23:47.575Z,20.43
2018-07-21T03:24:47.685Z,20.47
2018-07-21T03:25:47.579Z,20.43
2018-07-21T03:26:47.581Z,20.47
2018-07-21T03:27:47.587Z,20.47
2018-07-21T03:28:47.634Z,20.44
2018-07-21T03:29:47.604Z,20.44
2018-07-21T03:30:47.612Z,20.40
2018-07-21T03:31:47.599Z,20.36
2018-07-21T03:32:47.607Z,20.36
2018-07-21T03:33:47.600Z,20.39
2018-07-21T03:34:47.601Z,20.44
2018-07-21T03:35:47.607Z,20.39
2018-07-21T03:36:47.609Z,20.36
2018-07-21T03:37:47.611Z,20.37
2018-07-21T03:38:47.615Z,20.37
2018-07-21T03:39:47.615Z,20.36
2018-07-21T03:40:47.624Z,20.37
2018-07-21T03:41:47.621Z,20.41
2018-07-21T03:42:47.624Z,20.44
2018-07-21T03:43:47.625Z,20.47
2018-07-21T03:44:47.631Z,20.48
2018-07-21T03:45:47.632Z,20.41
2018-07-21T03:46:47.634Z,20.41
2018-07-21T03:47:47.640Z,20.48
2018-07-21T03:48:47.640Z,20.47
2018-07-21T03:49:47.643Z,20.41
2018-07-21T03:50:47.645Z,20.48
2018-07-21T03:51:47.646Z,20.48
2018-07-21T03:52:47.656Z,20.44
2018-07-21T03:53:47.654Z,20.43
2018-07-21T03:54:47.655Z,20.44
2018-07-21T03:55:48.092Z,20.41
2018-07-21T03:56:47.662Z,20.48
2018-07-21T03:57:47.663Z,20.47
2018-07-21T03:58:47.667Z,20.43
2018-07-21T03:59:47.669Z,20.40
2018-07-21T04:00:47.674Z,20.47
2018-07-21T04:01:47.677Z,20.56
2018-07-21T04:02:47.678Z,20.60
2018-07-21T04:03:47.680Z,20.58
2018-07-21T04:04:47.682Z,20.63
2018-07-21T04:05:47.685Z,20.60
2018-07-21T04:06:47.688Z,20.60
2018-07-21T04:07:47.721Z,20.63
2018-07-21T04:08:47.753Z,20.70
2018-07-21T04:09:47.696Z,20.59
2018-07-21T04:10:47.698Z,20.74
2018-07-21T04:11:47.702Z,20.70
2018-07-21T04:12:47.708Z,20.60
2018-07-21T04:13:47.706Z,20.69
2018-07-21T04:14:47.713Z,20.70
2018-07-21T04:15:47.712Z,20.62
2018-07-21T04:16:47.726Z,20.72
2018-07-21T04:17:47.720Z,20.78
2018-07-21T04:18:47.723Z,20.74
2018-07-21T04:19:47.724Z,20.72
2018-07-21T04:20:47.728Z,20.84
2018-07-21T04:21:47.730Z,20.77
2018-07-21T04:22:47.732Z,20.75
2018-07-21T04:23:47.736Z,20.78
2018-07-21T04:24:47.739Z,20.74
2018-07-21T04:25:47.740Z,20.75
2018-07-21T04:26:48.468Z,20.74
2018-07-21T04:27:47.751Z,20.72
2018-07-21T04:28:47.752Z,20.70
2018-07-21T04:29:47.758Z,20.77
2018-07-21T04:30:47.755Z,20.70
2018-07-21T04:31:47.757Z,20.62
2018-07-21T04:32:47.761Z,20.63
2018-07-21T04:33:47.762Z,20.55
2018-07-21T04:34:47.767Z,20.59
2018-07-21T04:35:47.772Z,20.59
2018-07-21T04:36:47.771Z,20.62
2018-07-21T04:37:47.775Z,20.59
2018-07-21T04:38:47.776Z,20.55
2018-07-21T04:39:47.778Z,20.56
2018-07-21T04:40:47.782Z,20.48
2018-07-21T04:41:47.783Z,20.52
2018-07-21T04:42:47.785Z,20.55
2018-07-21T04:43:47.787Z,20.60
2018-07-21T04:44:47.790Z,20.69
2018-07-21T04:45:47.796Z,20.72
2018-07-21T04:46:47.795Z,20.70
2018-07-21T04:47:47.798Z,20.85
2018-07-21T04:48:47.800Z,20.84
2018-07-21T04:49:47.809Z,20.88
2018-07-21T04:50:47.816Z,20.84
2018-07-21T04:51:47.809Z,20.85
2018-07-21T04:52:47.811Z,20.85
2018-07-21T04:53:47.820Z,20.88
2018-07-21T04:54:47.816Z,20.90
2018-07-21T04:55:47.822Z,20.90
2018-07-21T04:56:47.821Z,20.96
2018-07-21T04:57:47.826Z,21.00
2018-07-21T04:58:47.827Z,21.06
2018-07-21T04:59:47.829Z,21.05
2018-07-21T05:00:47.874Z,21.00
2018-07-21T05:01:47.835Z,21.03
2018-07-21T05:02:47.839Z,21.05
2018-07-21T05:03:47.840Z,21.02
2018-07-21T05:04:47.844Z,21.02
2018-07-21T05:05:47.846Z,21.02
2018-07-21T05:06:47.856Z,20.99
2018-07-21T05:07:47.851Z,20.95
2018-07-21T05:08:47.857Z,20.97
2018-07-21T05:09:47.860Z,20.87
2018-07-21T05:10:47.860Z,20.95
2018-07-21T05:11:47.862Z,21.05
2018-07-21T05:12:47.865Z,21.03
2018-07-21T05:13:47.884Z,21.24
2018-07-21T05:14:47.871Z,21.35
2018-07-21T05:15:47.873Z,21.42
2018-07-21T05:16:47.875Z,21.72
2018-07-21T05:17:47.879Z,22.17
2018-07-21T05:18:47.883Z,22.18
2018-07-21T05:19:47.883Z,22.25
2018-07-21T05:20:47.931Z,22.28
2018-07-21T05:21:47.891Z,22.41
2018-07-21T05:22:47.897Z,22.60
2018-07-21T05:23:47.895Z,22.76
2018-07-21T05:24:47.900Z,23.02
2018-07-21T05:25:47.911Z,23.48
2018-07-21T05:26:47.906Z,23.76
2018-07-21T05:27:47.909Z,23.83
2018-07-21T05:28:47.913Z,23.80
2018-07-21T05:29:47.920Z,23.92
2018-07-21T05:30:47.920Z,23.87
2018-07-21T05:31:47.922Z,23.87
2018-07-21T05:32:47.927Z,23.98
2018-07-21T05:33:47.935Z,24.16
2018-07-21T05:34:47.933Z,24.17
2018-07-21T05:35:47.944Z,24.26
2018-07-21T05:36:47.951Z,24.39
2018-07-21T05:37:47.947Z,24.33
2018-07-21T05:38:47.949Z,24.23
2018-07-21T05:39:47.955Z,24.23
2018-07-21T05:40:47.958Z,24.13
2018-07-21T05:41:47.964Z,24.03
2018-07-21T05:42:48.011Z,24.05
2018-07-21T05:43:47.974Z,23.95
2018-07-21T05:44:47.976Z,23.81
2018-07-21T05:45:47.982Z,23.88
2018-07-21T05:46:47.986Z,23.73
2018-07-21T05:47:47.988Z,23.68
2018-07-21T05:48:47.993Z,23.66
2018-07-21T05:49:48.002Z,23.65
2018-07-21T05:50:48.003Z,23.58
2018-07-21T05:51:48.010Z,23.51
2018-07-21T05:52:48.012Z,23.48
2018-07-21T05:53:48.018Z,23.44
2018-07-21T05:54:48.019Z,23.50
2018-07-21T05:55:48.023Z,23.40
2018-07-21T05:56:48.029Z,23.37
2018-07-21T05:57:48.032Z,23.48
2018-07-21T05:58:48.036Z,23.51
2018-07-21T05:59:48.040Z,23.56
2018-07-21T06:00:48.061Z,23.63
2018-07-21T06:01:48.051Z,23.69
2018-07-21T06:02:48.108Z,23.86
2018-07-21T06:03:48.062Z,23.91
2018-07-21T06:04:48.066Z,23.99
2018-07-21T06:05:48.065Z,23.96
2018-07-21T06:06:48.069Z,24.03
2018-07-21T06:07:48.076Z,23.96
2018-07-21T06:08:48.078Z,23.92
2018-07-21T06:09:48.083Z,23.71
2018-07-21T06:10:48.085Z,23.65
2018-07-21T06:11:48.094Z,23.65
2018-07-21T06:12:48.095Z,23.55
2018-07-21T06:13:48.102Z,23.54
2018-07-21T06:14:48.102Z,23.61
2018-07-21T06:15:48.109Z,23.66
2018-07-21T06:16:48.139Z,23.69
2018-07-21T06:17:48.115Z,23.71
2018-07-21T06:18:48.172Z,23.73
2018-07-21T06:19:48.126Z,23.66
2018-07-21T06:20:48.130Z,23.58
2018-07-21T06:21:48.140Z,23.65
2018-07-21T06:22:48.142Z,23.69
2018-07-21T06:23:48.161Z,23.73
2018-07-21T06:24:48.145Z,23.76
2018-07-21T06:25:48.150Z,23.74
2018-07-21T06:26:48.154Z,23.83
2018-07-21T06:27:48.159Z,23.92
2018-07-21T06:28:48.187Z,23.93
2018-07-21T06:29:48.168Z,23.88
2018-07-21T06:30:48.176Z,23.96
2018-07-21T06:31:48.175Z,23.96
2018-07-21T06:32:48.182Z,23.98
2018-07-21T06:33:48.184Z,24.08
2018-07-21T06:34:48.187Z,24.10
2018-07-21T06:35:48.197Z,24.11
2018-07-21T06:36:48.196Z,24.13
2018-07-21T06:37:48.200Z,24.17
2018-07-21T06:38:48.206Z,24.10
2018-07-21T06:39:48.210Z,24.14
2018-07-21T06:40:48.216Z,24.21
2018-07-21T06:41:48.219Z,24.17
2018-07-21T06:42:48.221Z,24.20
2018-07-21T06:43:48.285Z,24.23
2018-07-21T06:44:48.231Z,24.13
2018-07-21T06:45:48.236Z,24.23
2018-07-21T06:46:48.241Z,24.29
2018-07-21T06:47:48.245Z,24.24
2018-07-21T06:48:48.256Z,24.33
2018-07-21T06:49:48.260Z,24.30
2018-07-21T06:50:48.256Z,24.30
2018-07-21T06:51:48.260Z,24.33
2018-07-21T06:52:48.265Z,24.32
2018-07-21T06:53:48.271Z,24.47
2018-07-21T06:54:48.275Z,24.45
2018-07-21T06:55:48.279Z,24.45
2018-07-21T06:56:48.284Z,24.50
2018-07-21T06:57:48.292Z,24.61
2018-07-21T06:58:48.296Z,24.51
2018-07-21T06:59:48.298Z,24.55
2018-07-21T07:00:48.378Z,24.55
2018-07-21T07:01:48.314Z,24.54
2018-07-21T07:02:48.312Z,24.45
2018-07-21T07:03:48.317Z,24.39
2018-07-21T07:04:48.329Z,24.42
2018-07-21T07:05:48.335Z,24.43
2018-07-21T07:06:48.329Z,24.42
2018-07-21T07:07:48.338Z,24.36
2018-07-21T07:08:48.343Z,24.35
2018-07-21T07:09:48.342Z,24.33
2018-07-21T07:10:48.346Z,24.45
2018-07-21T07:11:48.351Z,24.51
2018-07-21T07:12:48.356Z,24.58
2018-07-21T07:13:48.362Z,24.60
2018-07-21T07:14:48.366Z,24.60
2018-07-21T07:15:48.368Z,24.76
2018-07-21T07:16:48.377Z,24.84
2018-07-21T07:17:48.378Z,24.86
2018-07-21T07:18:48.383Z,24.91
2018-07-21T07:19:48.391Z,24.92
2018-07-21T07:20:48.393Z,24.98
2018-07-21T07:21:48.398Z,25.07
2018-07-21T07:22:48.400Z,25.07
2018-07-21T07:23:48.404Z,25.25
2018-07-21T07:24:48.410Z,25.26
2018-07-21T07:25:48.419Z,25.26
2018-07-21T07:26:48.418Z,25.31
2018-07-21T07:27:48.429Z,25.32
2018-07-21T07:28:48.429Z,25.36
2018-07-21T07:29:48.434Z,25.38
2018-07-21T07:30:48.439Z,25.48
2018-07-21T07:31:48.780Z,25.53
2018-07-21T07:32:48.447Z,25.46
2018-07-21T07:33:48.455Z,25.51
2018-07-21T07:34:48.458Z,25.55
2018-07-21T07:35:48.464Z,25.50
2018-07-21T07:36:48.478Z,25.63
2018-07-21T07:37:48.472Z,25.62
2018-07-21T07:38:48.477Z,25.66
2018-07-21T07:39:48.482Z,25.72
2018-07-21T07:40:48.489Z,25.69
2018-07-21T07:41:48.492Z,25.77
2018-07-21T07:42:48.498Z,25.62
2018-07-21T07:43:48.505Z,25.60
2018-07-21T07:44:48.508Z,25.68
2018-07-21T07:45:48.512Z,25.68
2018-07-21T07:46:48.516Z,25.59
2018-07-21T07:47:48.524Z,25.59
2018-07-21T07:48:48.527Z,25.59
2018-07-21T07:49:48.798Z,25.80
2018-07-21T07:50:48.537Z,25.68
2018-07-21T07:51:48.541Z,25.72
2018-07-21T07:52:48.554Z,25.72
2018-07-21T07:53:48.553Z,25.73
2018-07-21T07:54:48.562Z,25.78
2018-07-21T07:55:48.562Z,25.72
2018-07-21T07:56:48.583Z,25.83
2018-07-21T07:57:48.574Z,25.87
2018-07-21T07:58:48.579Z,25.90
2018-07-21T07:59:48.582Z,25.88
2018-07-21T08:00:48.587Z,25.98
2018-07-21T08:01:48.592Z,26.02
2018-07-21T08:02:49.179Z,26.06
2018-07-21T08:03:48.603Z,26.00
2018-07-21T08:04:48.607Z,25.98
2018-07-21T08:05:48.613Z,26.05
2018-07-21T08:06:48.616Z,26.07
2018-07-21T08:07:48.661Z,26.03
2018-07-21T08:08:48.630Z,26.02
2018-07-21T08:09:48.636Z,26.03
2018-07-21T08:10:48.638Z,26.10
2018-07-21T08:11:48.645Z,26.05
2018-07-21T08:12:48.651Z,26.07
2018-07-21T08:13:48.654Z,26.16
2018-07-21T08:14:48.676Z,26.18
2018-07-21T08:15:48.681Z,26.16
2018-07-21T08:16:48.670Z,26.15
2018-07-21T08:17:48.677Z,26.18
2018-07-21T08:18:48.679Z,26.19
2018-07-21T08:19:48.682Z,26.22
2018-07-21T08:20:48.691Z,26.22
2018-07-21T08:21:48.694Z,26.28
2018-07-21T08:22:48.697Z,26.28
2018-07-21T08:23:48.704Z,26.36
2018-07-21T08:24:48.712Z,26.36
2018-07-21T08:25:48.716Z,26.44
2018-07-21T08:26:48.719Z,26.52
2018-07-21T08:27:48.727Z,26.60
2018-07-21T08:28:48.731Z,26.58
2018-07-21T08:29:48.735Z,26.70
2018-07-21T08:30:48.741Z,26.68
2018-07-21T08:31:48.746Z,26.70
2018-07-21T08:32:48.753Z,26.83
2018-07-21T08:33:49.561Z,26.88
2018-07-21T08:34:48.762Z,26.90
2018-07-21T08:35:48.768Z,26.90
2018-07-21T08:36:48.774Z,26.96
2018-07-21T08:37:48.780Z,26.97
2018-07-21T08:38:48.788Z,27.03
2018-07-21T08:39:48.802Z,26.99
2018-07-21T08:40:48.795Z,26.99
2018-07-21T08:41:48.798Z,27.03
2018-07-21T08:42:48.806Z,27.10
2018-07-21T08:43:48.810Z,27.10
2018-07-21T08:44:48.817Z,27.12
2018-07-21T08:45:48.824Z,27.15
2018-07-21T08:46:48.829Z,27.18
2018-07-21T08:47:48.832Z,27.14
2018-07-21T08:48:48.838Z,27.18
2018-07-21T08:49:48.926Z,27.36
2018-07-21T08:50:48.848Z,27.27
2018-07-21T08:51:48.854Z,27.25
2018-07-21T08:52:48.862Z,27.30
2018-07-21T08:53:48.864Z,27.27
2018-07-21T08:54:48.869Z,27.29
2018-07-21T08:55:48.952Z,27.32
2018-07-21T08:56:48.912Z,27.29
2018-07-21T08:57:48.887Z,27.21
2018-07-21T08:58:48.897Z,27.30
2018-07-21T08:59:48.897Z,27.26
2018-07-21T09:00:48.904Z,27.26
2018-07-21T09:01:48.914Z,27.29
2018-07-21T09:02:48.915Z,27.30
2018-07-21T09:03:48.922Z,27.29
2018-07-21T09:04:48.926Z,27.20
2018-07-21T09:05:48.950Z,27.25
2018-07-21T09:06:48.936Z,27.30
2018-07-21T09:07:48.946Z,27.27
2018-07-21T09:08:48.949Z,27.30
2018-07-21T09:09:48.952Z,27.27
2018-07-21T09:10:48.961Z,27.21
2018-07-21T09:11:49.011Z,27.15
2018-07-21T09:12:48.970Z,27.14
2018-07-21T09:13:48.980Z,27.11
2018-07-21T09:14:48.979Z,27.11
2018-07-21T09:15:48.986Z,27.08
2018-07-21T09:16:48.994Z,27.03
2018-07-21T09:17:49.002Z,27.08
2018-07-21T09:18:49.007Z,27.05
2018-07-21T09:19:49.007Z,27.08
2018-07-21T09:20:49.014Z,27.07
2018-07-21T09:21:49.020Z,27.15
2018-07-21T09:22:49.050Z,27.14
2018-07-21T09:23:49.028Z,27.17
2018-07-21T09:24:49.040Z,27.29
2018-07-21T09:25:49.041Z,27.32
2018-07-21T09:26:49.054Z,27.22
2018-07-21T09:27:49.060Z,27.32
2018-07-21T09:28:49.056Z,27.29
2018-07-21T09:29:49.061Z,27.32
2018-07-21T09:30:49.075Z,27.27
2018-07-21T09:31:49.075Z,27.27
2018-07-21T09:32:49.079Z,27.22
2018-07-21T09:33:49.085Z,27.27
2018-07-21T09:34:49.090Z,27.27
2018-07-21T09:35:49.094Z,27.30
2018-07-21T09:36:49.103Z,27.30
2018-07-21T09:37:49.105Z,27.17
2018-07-21T09:38:49.118Z,27.14
2018-07-21T09:39:49.115Z,27.12
2018-07-21T09:40:49.135Z,27.17
2018-07-21T09:41:49.128Z,27.12
2018-07-21T09:42:49.131Z,27.10
2018-07-21T09:43:49.137Z,27.11
2018-07-21T09:44:49.143Z,27.10
2018-07-21T09:45:49.154Z,27.05
2018-07-21T09:46:49.153Z,27.11
2018-07-21T09:47:49.161Z,27.10
2018-07-21T09:48:49.164Z,27.11
2018-07-21T09:49:49.170Z,27.10
2018-07-21T09:50:49.177Z,27.11
2018-07-21T09:51:49.182Z,27.11
2018-07-21T09:52:49.198Z,27.08
2018-07-21T09:53:49.193Z,27.08
2018-07-21T09:54:49.207Z,27.08
2018-07-21T09:55:49.294Z,27.07
2018-07-21T09:56:49.216Z,27.08
2018-07-21T09:57:49.213Z,27.10
2018-07-21T09:58:49.223Z,27.08
2018-07-21T09:59:49.226Z,27.11
2018-07-21T10:00:49.231Z,27.03
2018-07-21T10:01:49.235Z,26.95
2018-07-21T10:02:49.242Z,27.03
2018-07-21T10:03:49.247Z,26.96
2018-07-21T10:04:49.254Z,26.93
2018-07-21T10:05:49.257Z,26.90
2018-07-21T10:06:49.261Z,26.89
2018-07-21T10:07:49.266Z,26.93
2018-07-21T10:08:49.272Z,26.73
2018-07-21T10:09:49.278Z,26.83
2018-07-21T10:10:49.293Z,26.81
2018-07-21T10:11:49.361Z,26.74
2018-07-21T10:12:49.294Z,26.73
2018-07-21T10:13:49.305Z,26.68
2018-07-21T10:14:49.305Z,26.68
2018-07-21T10:15:49.310Z,26.63
2018-07-21T10:16:49.315Z,26.51
2018-07-21T10:17:49.328Z,26.55
2018-07-21T10:18:49.325Z,26.53
2018-07-21T10:19:49.333Z,26.58
2018-07-21T10:20:49.350Z,26.51
2018-07-21T10:21:49.372Z,26.59
2018-07-21T10:22:49.347Z,26.68
2018-07-21T10:23:49.361Z,26.59
2018-07-21T10:24:49.358Z,26.77
2018-07-21T10:25:49.365Z,26.77
2018-07-21T10:26:49.369Z,26.83
2018-07-21T10:27:49.374Z,26.83
2018-07-21T10:28:49.383Z,26.88
2018-07-21T10:29:49.386Z,26.92
2018-07-21T10:30:49.396Z,26.90
2018-07-21T10:31:49.393Z,26.93
2018-07-21T10:32:49.400Z,26.93
2018-07-21T10:33:49.408Z,26.88
2018-07-21T10:34:49.411Z,26.88
2018-07-21T10:35:49.539Z,26.88
2018-07-21T10:36:49.430Z,26.93
2018-07-21T10:37:49.429Z,26.77
2018-07-21T10:38:49.433Z,26.80
2018-07-21T10:39:49.437Z,26.78
2018-07-21T10:40:49.443Z,26.81
2018-07-21T10:41:49.447Z,26.78
2018-07-21T10:42:49.456Z,26.81
2018-07-21T10:43:49.461Z,26.78
2018-07-21T10:44:49.467Z,26.70
2018-07-21T10:45:49.509Z,26.73
2018-07-21T10:46:49.474Z,26.71
2018-07-21T10:47:49.480Z,26.73
2018-07-21T10:48:49.485Z,26.66
2018-07-21T10:49:49.492Z,26.74
2018-07-21T10:50:49.564Z,26.65
2018-07-21T10:51:49.504Z,26.58
2018-07-21T10:52:49.507Z,26.63
2018-07-21T10:53:49.513Z,26.55
2018-07-21T10:54:49.516Z,26.59
2018-07-21T10:55:49.522Z,26.51
2018-07-21T10:56:49.536Z,26.45
2018-07-21T10:57:49.537Z,26.53
2018-07-21T10:58:49.538Z,26.47
2018-07-21T10:59:49.543Z,26.45
2018-07-21T11:00:49.550Z,26.45
2018-07-21T11:01:49.554Z,26.38
2018-07-21T11:02:49.604Z,26.29
2018-07-21T11:03:49.566Z,26.34
2018-07-21T11:04:49.578Z,26.29
2018-07-21T11:05:49.578Z,26.26
2018-07-21T11:06:49.579Z,26.33
2018-07-21T11:07:49.895Z,26.33
2018-07-21T11:08:49.592Z,26.38
2018-07-21T11:09:49.596Z,26.37
2018-07-21T11:10:49.601Z,26.29
2018-07-21T11:11:49.609Z,26.31
2018-07-21T11:12:49.846Z,26.41
2018-07-21T11:13:49.617Z,26.26
2018-07-21T11:14:49.672Z,26.37
2018-07-21T11:15:49.655Z,26.41
2018-07-21T11:16:49.711Z,26.34
2018-07-21T11:17:49.644Z,26.37
2018-07-21T11:18:49.664Z,26.53
2018-07-21T11:19:49.652Z,26.44
2018-07-21T11:20:49.748Z,26.53
2018-07-21T11:21:50.020Z,26.40
2018-07-21T11:22:49.679Z,26.43
2018-07-21T11:23:49.682Z,26.45
2018-07-21T11:24:49.681Z,26.51
2018-07-21T11:25:49.792Z,26.55
2018-07-21T11:26:49.682Z,26.55
2018-07-21T11:27:49.688Z,26.56
2018-07-21T11:28:49.743Z,26.55
2018-07-21T11:29:49.699Z,26.60
2018-07-21T11:30:49.711Z,26.62
2018-07-21T11:31:49.710Z,26.70
2018-07-21T11:32:49.715Z,26.63
2018-07-21T11:33:49.722Z,26.68
2018-07-21T11:34:49.724Z,26.68
2018-07-21T11:35:49.807Z,26.63
2018-07-21T11:36:49.740Z,26.65
2018-07-21T11:37:49.740Z,26.74
2018-07-21T11:38:49.971Z,26.73
2018-07-21T11:39:49.751Z,26.78
2018-07-21T11:40:49.759Z,26.89
2018-07-21T11:41:49.766Z,26.85
2018-07-21T11:42:49.768Z,26.88
2018-07-21T11:43:49.808Z,26.95
2018-07-21T11:44:49.777Z,27.02
2018-07-21T11:45:49.807Z,27.00
2018-07-21T11:46:49.834Z,27.02
2018-07-21T11:47:49.795Z,27.02
2018-07-21T11:48:49.822Z,27.00
2018-07-21T11:49:50.143Z,27.02
2018-07-21T11:50:49.811Z,26.90
2018-07-21T11:51:49.845Z,26.92
2018-07-21T11:52:49.821Z,26.92
2018-07-21T11:53:49.828Z,26.90
2018-07-21T11:54:49.837Z,26.83
2018-07-21T11:55:49.865Z,26.71
2018-07-21T11:56:49.844Z,26.62
2018-07-21T11:57:50.286Z,26.62
2018-07-21T11:58:50.005Z,26.59
2018-07-21T11:59:49.926Z,26.53
2018-07-21T12:00:49.873Z,26.52
2018-07-21T12:01:49.893Z,26.52
2018-07-21T12:02:50.152Z,26.45
2018-07-21T12:03:50.060Z,26.43
2018-07-21T12:04:49.903Z,26.47
2018-07-21T12:05:49.900Z,26.41
2018-07-21T12:06:49.930Z,26.52
2018-07-21T12:07:49.907Z,26.37
2018-07-21T12:08:49.965Z,26.40
2018-07-21T12:09:50.470Z,26.40
2018-07-21T12:10:49.932Z,26.25
2018-07-21T12:11:49.922Z,26.34
2018-07-21T12:12:49.971Z,26.23
2018-07-21T12:13:49.949Z,26.28
2018-07-21T12:14:50.072Z,26.10
2018-07-21T12:15:49.943Z,26.21
2018-07-21T12:16:50.076Z,26.22
2018-07-21T12:17:49.952Z,26.22
2018-07-21T12:18:49.970Z,26.25
2018-07-21T12:19:49.962Z,26.19
2018-07-21T12:20:50.000Z,26.18
2018-07-21T12:21:50.020Z,26.21
2018-07-21T12:22:49.980Z,26.22
2018-07-21T12:23:49.997Z,26.19
2018-07-21T12:24:49.987Z,26.18
2018-07-21T12:25:50.029Z,26.15
2018-07-21T12:26:50.000Z,26.16
2018-07-21T12:27:50.021Z,26.25
2018-07-21T12:28:50.012Z,26.19
2018-07-21T12:29:50.019Z,26.21
2018-07-21T12:30:50.022Z,26.23
2018-07-21T12:31:50.048Z,26.03
2018-07-21T12:32:50.027Z,26.02
2018-07-21T12:33:50.051Z,26.03
2018-07-21T12:34:50.042Z,26.05
2018-07-21T12:35:50.131Z,25.91
2018-07-21T12:36:50.052Z,26.00
2018-07-21T12:37:50.057Z,25.95
2018-07-21T12:38:50.057Z,25.93
2018-07-21T12:39:50.065Z,25.90
2018-07-21T12:40:50.862Z,25.85
2018-07-21T12:41:50.080Z,25.72
2018-07-21T12:42:50.080Z,25.72
2018-07-21T12:43:50.082Z,25.77
2018-07-21T12:44:50.101Z,25.63
2018-07-21T12:45:50.092Z,25.63
2018-07-21T12:46:50.309Z,25.54
2018-07-21T12:47:50.103Z,25.53
2018-07-21T12:48:50.132Z,25.43
2018-07-21T12:49:50.112Z,25.32
2018-07-21T12:50:50.115Z,25.32
2018-07-21T12:51:50.160Z,25.25
2018-07-21T12:52:50.177Z,25.21